sensor_id;sensor_type;location;lat;lon;timestamp;temperature;humidity
32524;DHT22;18965;52.242;20.886;2023-07-20T00:02:04;19.00;62.70
32524;DHT22;18965;52.242;20.886;2023-07-20T00:04:31;19.00;62.80
32524;DHT22;18965;52.242;20.886;2023-07-20T00:06:57;19.00;62.80
32524;DHT22;18965;52.242;20.886;2023-07-20T00:09:23;19.00;62.80
32524;DHT22;18965;52.242;20.886;2023-07-20T00:11:50;19.00;62.80
32524;DHT22;18965;52.242;20.886;2023-07-20T00:14:16;19.00;62.80
32524;DHT22;18965;52.242;20.886;2023-07-20T00:16:42;19.10;63.00
32524;DHT22;18965;52.242;20.886;2023-07-20T00:19:09;19.10;63.20
32524;DHT22;18965;52.242;20.886;2023-07-20T00:25:27;19.10;63.90
32524;DHT22;18965;52.242;20.886;2023-07-20T00:31:36;19.00;63.20
32524;DHT22;18965;52.242;20.886;2023-07-20T00:34:03;19.00;63.00
32524;DHT22;18965;52.242;20.886;2023-07-20T00:36:29;18.90;62.90
32524;DHT22;18965;52.242;20.886;2023-07-20T00:41:55;18.80;62.70
32524;DHT22;18965;52.242;20.886;2023-07-20T00:44:23;18.80;62.70
32524;DHT22;18965;52.242;20.886;2023-07-20T00:46:49;18.70;62.80
32524;DHT22;18965;52.242;20.886;2023-07-20T00:49:16;18.70;62.80
32524;DHT22;18965;52.242;20.886;2023-07-20T00:51:51;18.70;62.90
32524;DHT22;18965;52.242;20.886;2023-07-20T00:54:22;18.70;63.00
32524;DHT22;18965;52.242;20.886;2023-07-20T00:57:35;18.70;63.00
32524;DHT22;18965;52.242;20.886;2023-07-20T01:00:10;18.60;63.10
32524;DHT22;18965;52.242;20.886;2023-07-20T01:03:10;18.60;63.20
32524;DHT22;18965;52.242;20.886;2023-07-20T01:12:00;18.50;63.90
32524;DHT22;18965;52.242;20.886;2023-07-20T01:14:29;18.50;64.10
32524;DHT22;18965;52.242;20.886;2023-07-20T01:16:55;18.50;64.10
32524;DHT22;18965;52.242;20.886;2023-07-20T01:19:20;18.40;64.20
32524;DHT22;18965;52.242;20.886;2023-07-20T01:22:00;18.40;64.40
32524;DHT22;18965;52.242;20.886;2023-07-20T01:31:27;18.40;64.90
32524;DHT22;18965;52.242;20.886;2023-07-20T01:34:02;18.30;64.90
32524;DHT22;18965;52.242;20.886;2023-07-20T01:36:35;18.30;65.00
32524;DHT22;18965;52.242;20.886;2023-07-20T01:39:02;18.30;65.30
32524;DHT22;18965;52.242;20.886;2023-07-20T01:41:30;18.20;65.40
32524;DHT22;18965;52.242;20.886;2023-07-20T01:43:59;18.20;65.70
32524;DHT22;18965;52.242;20.886;2023-07-20T01:46:25;18.20;65.90
32524;DHT22;18965;52.242;20.886;2023-07-20T01:48:52;18.10;65.90
32524;DHT22;18965;52.242;20.886;2023-07-20T01:51:18;18.20;66.10
32524;DHT22;18965;52.242;20.886;2023-07-20T01:53:44;18.20;66.40
32524;DHT22;18965;52.242;20.886;2023-07-20T01:56:09;18.20;66.50
32524;DHT22;18965;52.242;20.886;2023-07-20T01:58:37;18.20;66.60
32524;DHT22;18965;52.242;20.886;2023-07-20T02:01:03;18.20;66.70
32524;DHT22;18965;52.242;20.886;2023-07-20T02:03:29;18.20;66.80
32524;DHT22;18965;52.242;20.886;2023-07-20T02:05:55;18.20;66.80
32524;DHT22;18965;52.242;20.886;2023-07-20T02:08:22;18.30;66.90
32524;DHT22;18965;52.242;20.886;2023-07-20T02:10:49;18.20;66.90
32524;DHT22;18965;52.242;20.886;2023-07-20T02:13:15;18.20;67.00
32524;DHT22;18965;52.242;20.886;2023-07-20T02:15:41;18.20;67.10
32524;DHT22;18965;52.242;20.886;2023-07-20T02:18:08;18.20;67.40
32524;DHT22;18965;52.242;20.886;2023-07-20T02:20:34;18.30;67.40
32524;DHT22;18965;52.242;20.886;2023-07-20T02:23:06;18.30;67.40
32524;DHT22;18965;52.242;20.886;2023-07-20T02:25:32;18.30;67.50
32524;DHT22;18965;52.242;20.886;2023-07-20T02:27:58;18.30;67.50
32524;DHT22;18965;52.242;20.886;2023-07-20T02:30:27;18.30;67.60
32524;DHT22;18965;52.242;20.886;2023-07-20T02:32:53;18.30;67.50
32524;DHT22;18965;52.242;20.886;2023-07-20T02:35:19;18.30;67.40
32524;DHT22;18965;52.242;20.886;2023-07-20T02:37:44;18.20;67.30
32524;DHT22;18965;52.242;20.886;2023-07-20T02:40:16;18.20;67.30
32524;DHT22;18965;52.242;20.886;2023-07-20T02:43:04;18.10;67.40
32524;DHT22;18965;52.242;20.886;2023-07-20T02:45:50;18.10;67.60
32524;DHT22;18965;52.242;20.886;2023-07-20T02:48:17;18.10;67.70
32524;DHT22;18965;52.242;20.886;2023-07-20T02:50:43;18.10;67.70
32524;DHT22;18965;52.242;20.886;2023-07-20T02:53:09;18.10;67.70
32524;DHT22;18965;52.242;20.886;2023-07-20T02:55:35;18.10;67.70
32524;DHT22;18965;52.242;20.886;2023-07-20T02:58:01;18.00;67.70
32524;DHT22;18965;52.242;20.886;2023-07-20T03:00:26;18.00;67.70
32524;DHT22;18965;52.242;20.886;2023-07-20T03:02:53;18.10;67.80
32524;DHT22;18965;52.242;20.886;2023-07-20T03:05:21;18.00;67.90
32524;DHT22;18965;52.242;20.886;2023-07-20T03:07:58;18.00;68.00
32524;DHT22;18965;52.242;20.886;2023-07-20T03:10:28;18.10;68.20
32524;DHT22;18965;52.242;20.886;2023-07-20T03:12:54;18.10;68.10
32524;DHT22;18965;52.242;20.886;2023-07-20T03:15:20;18.10;68.10
32524;DHT22;18965;52.242;20.886;2023-07-20T03:17:45;18.10;68.20
32524;DHT22;18965;52.242;20.886;2023-07-20T03:20:11;18.10;68.20
32524;DHT22;18965;52.242;20.886;2023-07-20T03:22:38;18.10;68.30
32524;DHT22;18965;52.242;20.886;2023-07-20T03:25:04;18.10;68.30
32524;DHT22;18965;52.242;20.886;2023-07-20T03:27:30;18.20;68.40
32524;DHT22;18965;52.242;20.886;2023-07-20T03:29:55;18.20;68.30
32524;DHT22;18965;52.242;20.886;2023-07-20T03:32:21;18.20;68.40
32524;DHT22;18965;52.242;20.886;2023-07-20T03:34:47;18.20;68.50
32524;DHT22;18965;52.242;20.886;2023-07-20T03:37:13;18.20;68.50
32524;DHT22;18965;52.242;20.886;2023-07-20T03:39:39;18.30;68.80
32524;DHT22;18965;52.242;20.886;2023-07-20T03:42:05;18.30;69.20
32524;DHT22;18965;52.242;20.886;2023-07-20T03:44:31;18.30;69.70
32524;DHT22;18965;52.242;20.886;2023-07-20T03:46:57;18.30;70.20
32524;DHT22;18965;52.242;20.886;2023-07-20T03:49:23;18.30;70.50
32524;DHT22;18965;52.242;20.886;2023-07-20T03:51:48;18.20;70.50
32524;DHT22;18965;52.242;20.886;2023-07-20T03:54:14;18.20;70.70
32524;DHT22;18965;52.242;20.886;2023-07-20T03:56:40;18.10;70.80
32524;DHT22;18965;52.242;20.886;2023-07-20T03:59:05;18.00;71.00
32524;DHT22;18965;52.242;20.886;2023-07-20T04:01:31;18.00;71.70
32524;DHT22;18965;52.242;20.886;2023-07-20T04:04:04;17.90;72.30
32524;DHT22;18965;52.242;20.886;2023-07-20T04:06:29;17.90;72.80
32524;DHT22;18965;52.242;20.886;2023-07-20T04:08:55;17.90;73.20
32524;DHT22;18965;52.242;20.886;2023-07-20T04:11:21;17.90;73.40
32524;DHT22;18965;52.242;20.886;2023-07-20T04:13:46;17.90;73.80
32524;DHT22;18965;52.242;20.886;2023-07-20T04:16:12;17.90;74.10
32524;DHT22;18965;52.242;20.886;2023-07-20T04:18:38;17.90;74.30
32524;DHT22;18965;52.242;20.886;2023-07-20T04:21:04;17.90;74.60
32524;DHT22;18965;52.242;20.886;2023-07-20T04:23:29;17.90;74.90
32524;DHT22;18965;52.242;20.886;2023-07-20T04:25:55;17.90;75.10
32524;DHT22;18965;52.242;20.886;2023-07-20T04:28:21;17.90;75.30
32524;DHT22;18965;52.242;20.886;2023-07-20T04:30:48;17.90;75.50
32524;DHT22;18965;52.242;20.886;2023-07-20T04:33:14;17.90;75.50
32524;DHT22;18965;52.242;20.886;2023-07-20T04:35:51;17.90;75.60
32524;DHT22;18965;52.242;20.886;2023-07-20T04:38:17;18.00;76.60
32524;DHT22;18965;52.242;20.886;2023-07-20T04:40:48;18.00;75.80
32524;DHT22;18965;52.242;20.886;2023-07-20T04:43:15;18.00;76.00
32524;DHT22;18965;52.242;20.886;2023-07-20T04:45:41;18.00;76.00
32524;DHT22;18965;52.242;20.886;2023-07-20T04:48:10;17.90;76.00
32524;DHT22;18965;52.242;20.886;2023-07-20T04:50:37;18.00;76.30
32524;DHT22;18965;52.242;20.886;2023-07-20T04:53:03;18.00;76.30
32524;DHT22;18965;52.242;20.886;2023-07-20T04:55:29;18.00;76.40
32524;DHT22;18965;52.242;20.886;2023-07-20T04:57:54;18.10;76.50
32524;DHT22;18965;52.242;20.886;2023-07-20T05:00:20;18.10;76.40
32524;DHT22;18965;52.242;20.886;2023-07-20T05:02:47;18.20;76.50
32524;DHT22;18965;52.242;20.886;2023-07-20T05:05:14;18.30;76.60
32524;DHT22;18965;52.242;20.886;2023-07-20T05:07:40;18.30;76.60
32524;DHT22;18965;52.242;20.886;2023-07-20T05:10:06;18.40;76.60
32524;DHT22;18965;52.242;20.886;2023-07-20T05:12:33;18.50;76.40
32524;DHT22;18965;52.242;20.886;2023-07-20T05:14:58;18.60;76.30
32524;DHT22;18965;52.242;20.886;2023-07-20T05:17:24;18.70;76.30
32524;DHT22;18965;52.242;20.886;2023-07-20T05:19:50;18.80;76.30
32524;DHT22;18965;52.242;20.886;2023-07-20T05:22:16;18.80;76.20
32524;DHT22;18965;52.242;20.886;2023-07-20T05:24:42;18.80;76.10
32524;DHT22;18965;52.242;20.886;2023-07-20T05:27:08;18.80;76.00
32524;DHT22;18965;52.242;20.886;2023-07-20T05:29:34;18.90;75.80
32524;DHT22;18965;52.242;20.886;2023-07-20T05:32:00;18.90;75.70
32524;DHT22;18965;52.242;20.886;2023-07-20T05:34:25;19.00;75.60
32524;DHT22;18965;52.242;20.886;2023-07-20T05:36:51;19.00;75.50
32524;DHT22;18965;52.242;20.886;2023-07-20T05:39:17;19.00;75.60
32524;DHT22;18965;52.242;20.886;2023-07-20T05:41:43;19.00;75.50
32524;DHT22;18965;52.242;20.886;2023-07-20T05:44:09;19.00;75.50
32524;DHT22;18965;52.242;20.886;2023-07-20T05:46:35;19.00;75.40
32524;DHT22;18965;52.242;20.886;2023-07-20T05:49:01;19.00;75.20
32524;DHT22;18965;52.242;20.886;2023-07-20T05:51:27;19.00;75.40
32524;DHT22;18965;52.242;20.886;2023-07-20T05:53:53;19.00;75.40
32524;DHT22;18965;52.242;20.886;2023-07-20T05:56:19;19.00;75.10
32524;DHT22;18965;52.242;20.886;2023-07-20T05:58:44;19.00;75.20
32524;DHT22;18965;52.242;20.886;2023-07-20T06:01:10;19.00;76.10
32524;DHT22;18965;52.242;20.886;2023-07-20T06:03:36;19.00;75.30
32524;DHT22;18965;52.242;20.886;2023-07-20T06:06:03;19.00;75.40
32524;DHT22;18965;52.242;20.886;2023-07-20T06:08:34;19.10;75.60
32524;DHT22;18965;52.242;20.886;2023-07-20T06:11:00;19.10;75.20
32524;DHT22;18965;52.242;20.886;2023-07-20T06:13:26;19.10;75.10
32524;DHT22;18965;52.242;20.886;2023-07-20T06:15:52;19.10;74.90
32524;DHT22;18965;52.242;20.886;2023-07-20T06:18:17;19.20;75.10
32524;DHT22;18965;52.242;20.886;2023-07-20T06:20:49;19.30;75.10
32524;DHT22;18965;52.242;20.886;2023-07-20T06:23:14;19.30;75.00
32524;DHT22;18965;52.242;20.886;2023-07-20T06:25:40;19.40;75.10
32524;DHT22;18965;52.242;20.886;2023-07-20T06:28:06;19.50;75.20
32524;DHT22;18965;52.242;20.886;2023-07-20T06:30:34;19.50;74.60
32524;DHT22;18965;52.242;20.886;2023-07-20T06:33:00;19.50;74.30
32524;DHT22;18965;52.242;20.886;2023-07-20T06:35:26;19.50;74.30
32524;DHT22;18965;52.242;20.886;2023-07-20T06:37:52;19.50;74.10
32524;DHT22;18965;52.242;20.886;2023-07-20T06:40:18;19.40;73.90
32524;DHT22;18965;52.242;20.886;2023-07-20T06:42:44;19.40;74.00
32524;DHT22;18965;52.242;20.886;2023-07-20T06:45:10;19.40;74.00
32524;DHT22;18965;52.242;20.886;2023-07-20T06:47:39;19.40;74.20
32524;DHT22;18965;52.242;20.886;2023-07-20T06:50:06;19.30;74.10
32524;DHT22;18965;52.242;20.886;2023-07-20T06:52:32;19.30;73.90
32524;DHT22;18965;52.242;20.886;2023-07-20T06:54:58;19.30;74.00
32524;DHT22;18965;52.242;20.886;2023-07-20T06:57:25;19.30;74.30
32524;DHT22;18965;52.242;20.886;2023-07-20T06:59:51;19.20;74.20
32524;DHT22;18965;52.242;20.886;2023-07-20T07:02:16;19.20;74.30
32524;DHT22;18965;52.242;20.886;2023-07-20T07:04:42;19.20;74.50
32524;DHT22;18965;52.242;20.886;2023-07-20T07:07:09;19.10;74.30
32524;DHT22;18965;52.242;20.886;2023-07-20T07:09:35;19.10;74.40
32524;DHT22;18965;52.242;20.886;2023-07-20T07:12:01;19.10;74.60
32524;DHT22;18965;52.242;20.886;2023-07-20T07:14:26;19.00;74.60
32524;DHT22;18965;52.242;20.886;2023-07-20T07:16:52;19.00;74.60
32524;DHT22;18965;52.242;20.886;2023-07-20T07:19:18;19.00;74.70
32524;DHT22;18965;52.242;20.886;2023-07-20T07:21:44;19.00;75.00
32524;DHT22;18965;52.242;20.886;2023-07-20T07:24:10;19.00;75.00
32524;DHT22;18965;52.242;20.886;2023-07-20T07:26:37;19.00;75.20
32524;DHT22;18965;52.242;20.886;2023-07-20T07:29:03;18.90;75.20
32524;DHT22;18965;52.242;20.886;2023-07-20T07:31:29;18.90;75.10
32524;DHT22;18965;52.242;20.886;2023-07-20T07:33:56;18.90;75.20
32524;DHT22;18965;52.242;20.886;2023-07-20T07:36:22;18.80;75.30
32524;DHT22;18965;52.242;20.886;2023-07-20T07:38:50;18.80;75.20
32524;DHT22;18965;52.242;20.886;2023-07-20T07:41:16;18.80;75.30
32524;DHT22;18965;52.242;20.886;2023-07-20T07:43:42;18.70;75.20
32524;DHT22;18965;52.242;20.886;2023-07-20T07:46:08;18.70;75.40
32524;DHT22;18965;52.242;20.886;2023-07-20T07:48:33;18.70;75.60
32524;DHT22;18965;52.242;20.886;2023-07-20T07:50:59;18.70;75.60
32524;DHT22;18965;52.242;20.886;2023-07-20T07:53:25;18.70;75.80
32524;DHT22;18965;52.242;20.886;2023-07-20T07:55:52;18.70;76.30
32524;DHT22;18965;52.242;20.886;2023-07-20T07:58:18;18.70;76.40
32524;DHT22;18965;52.242;20.886;2023-07-20T08:00:43;18.70;76.20
32524;DHT22;18965;52.242;20.886;2023-07-20T08:03:10;18.70;76.10
32524;DHT22;18965;52.242;20.886;2023-07-20T08:05:36;18.70;76.10
32524;DHT22;18965;52.242;20.886;2023-07-20T08:08:02;18.60;76.00
32524;DHT22;18965;52.242;20.886;2023-07-20T08:10:29;18.60;76.20
32524;DHT22;18965;52.242;20.886;2023-07-20T08:12:55;18.50;76.40
32524;DHT22;18965;52.242;20.886;2023-07-20T08:15:21;18.50;76.60
32524;DHT22;18965;52.242;20.886;2023-07-20T08:17:47;18.40;76.70
32524;DHT22;18965;52.242;20.886;2023-07-20T08:20:14;18.40;77.00
32524;DHT22;18965;52.242;20.886;2023-07-20T08:22:41;18.40;77.10
32524;DHT22;18965;52.242;20.886;2023-07-20T08:25:08;18.40;77.00
32524;DHT22;18965;52.242;20.886;2023-07-20T08:27:34;18.50;77.10
32524;DHT22;18965;52.242;20.886;2023-07-20T08:30:00;18.60;77.10
32524;DHT22;18965;52.242;20.886;2023-07-20T08:32:26;18.60;77.10
32524;DHT22;18965;52.242;20.886;2023-07-20T08:34:52;18.60;77.00
32524;DHT22;18965;52.242;20.886;2023-07-20T08:37:17;18.70;76.80
32524;DHT22;18965;52.242;20.886;2023-07-20T08:39:43;18.70;77.00
32524;DHT22;18965;52.242;20.886;2023-07-20T08:42:10;18.70;76.90
32524;DHT22;18965;52.242;20.886;2023-07-20T08:44:37;18.80;77.00
32524;DHT22;18965;52.242;20.886;2023-07-20T08:47:04;18.90;77.20
32524;DHT22;18965;52.242;20.886;2023-07-20T08:49:31;18.90;77.00
32524;DHT22;18965;52.242;20.886;2023-07-20T08:52:00;18.90;76.50
32524;DHT22;18965;52.242;20.886;2023-07-20T08:54:32;18.90;76.40
32524;DHT22;18965;52.242;20.886;2023-07-20T08:57:02;19.00;76.10
32524;DHT22;18965;52.242;20.886;2023-07-20T08:59:29;19.00;76.50
32524;DHT22;18965;52.242;20.886;2023-07-20T09:01:56;19.20;76.90
32524;DHT22;18965;52.242;20.886;2023-07-20T09:04:23;19.30;76.80
32524;DHT22;18965;52.242;20.886;2023-07-20T09:06:49;19.50;76.50
32524;DHT22;18965;52.242;20.886;2023-07-20T09:09:16;19.60;76.60
32524;DHT22;18965;52.242;20.886;2023-07-20T09:11:41;19.60;76.40
32524;DHT22;18965;52.242;20.886;2023-07-20T09:14:09;19.70;76.30
32524;DHT22;18965;52.242;20.886;2023-07-20T09:16:55;19.80;76.20
32524;DHT22;18965;52.242;20.886;2023-07-20T09:19:21;19.90;75.90
32524;DHT22;18965;52.242;20.886;2023-07-20T09:21:49;19.90;75.70
32524;DHT22;18965;52.242;20.886;2023-07-20T09:24:15;20.00;75.50
32524;DHT22;18965;52.242;20.886;2023-07-20T09:26:47;20.10;74.70
32524;DHT22;18965;52.242;20.886;2023-07-20T09:29:19;20.20;74.50
32524;DHT22;18965;52.242;20.886;2023-07-20T09:32:17;20.30;74.70
32524;DHT22;18965;52.242;20.886;2023-07-20T09:34:43;20.50;74.30
32524;DHT22;18965;52.242;20.886;2023-07-20T09:37:09;20.60;74.00
32524;DHT22;18965;52.242;20.886;2023-07-20T09:39:45;20.70;73.60
32524;DHT22;18965;52.242;20.886;2023-07-20T09:42:15;20.80;73.50
32524;DHT22;18965;52.242;20.886;2023-07-20T09:44:43;20.90;73.10
32524;DHT22;18965;52.242;20.886;2023-07-20T09:47:09;21.10;73.10
32524;DHT22;18965;52.242;20.886;2023-07-20T09:49:44;21.30;72.70
32524;DHT22;18965;52.242;20.886;2023-07-20T09:52:10;21.50;72.10
32524;DHT22;18965;52.242;20.886;2023-07-20T09:54:40;21.60;71.60
32524;DHT22;18965;52.242;20.886;2023-07-20T09:57:09;21.70;70.80
32524;DHT22;18965;52.242;20.886;2023-07-20T09:59:37;21.70;70.10
32524;DHT22;18965;52.242;20.886;2023-07-20T10:02:09;21.70;69.50
32524;DHT22;18965;52.242;20.886;2023-07-20T10:04:37;21.60;69.60
32524;DHT22;18965;52.242;20.886;2023-07-20T10:07:05;21.60;69.50
32524;DHT22;18965;52.242;20.886;2023-07-20T10:09:37;21.50;69.30
32524;DHT22;18965;52.242;20.886;2023-07-20T10:12:05;21.50;68.80
32524;DHT22;18965;52.242;20.886;2023-07-20T10:14:36;21.50;68.80
32524;DHT22;18965;52.242;20.886;2023-07-20T10:17:05;21.50;69.10
32524;DHT22;18965;52.242;20.886;2023-07-20T10:19:43;21.50;69.30
32524;DHT22;18965;52.242;20.886;2023-07-20T10:22:16;21.50;69.50
32524;DHT22;18965;52.242;20.886;2023-07-20T10:24:46;21.50;69.00
32524;DHT22;18965;52.242;20.886;2023-07-20T10:27:15;21.50;69.00
32524;DHT22;18965;52.242;20.886;2023-07-20T10:29:41;21.50;69.20
32524;DHT22;18965;52.242;20.886;2023-07-20T10:32:09;21.60;69.30
32524;DHT22;18965;52.242;20.886;2023-07-20T10:34:35;21.70;69.20
32524;DHT22;18965;52.242;20.886;2023-07-20T10:37:01;21.90;68.90
32524;DHT22;18965;52.242;20.886;2023-07-20T10:39:31;22.00;68.40
32524;DHT22;18965;52.242;20.886;2023-07-20T10:42:02;22.30;68.20
32524;DHT22;18965;52.242;20.886;2023-07-20T10:44:30;22.40;67.60
32524;DHT22;18965;52.242;20.886;2023-07-20T10:47:03;22.50;67.50
32524;DHT22;18965;52.242;20.886;2023-07-20T10:49:33;22.70;66.90
32524;DHT22;18965;52.242;20.886;2023-07-20T10:52:00;22.80;66.30
32524;DHT22;18965;52.242;20.886;2023-07-20T10:57:22;23.10;65.80
32524;DHT22;18965;52.242;20.886;2023-07-20T10:59:48;23.20;65.10
32524;DHT22;18965;52.242;20.886;2023-07-20T11:02:18;23.20;65.20
32524;DHT22;18965;52.242;20.886;2023-07-20T11:04:45;23.10;65.40
32524;DHT22;18965;52.242;20.886;2023-07-20T11:07:15;23.10;65.20
32524;DHT22;18965;52.242;20.886;2023-07-20T11:09:41;23.10;65.20
32524;DHT22;18965;52.242;20.886;2023-07-20T11:12:23;23.10;65.70
32524;DHT22;18965;52.242;20.886;2023-07-20T11:14:58;23.30;65.10
32524;DHT22;18965;52.242;20.886;2023-07-20T11:17:31;23.60;64.60
32524;DHT22;18965;52.242;20.886;2023-07-20T11:19:58;23.70;64.20
32524;DHT22;18965;52.242;20.886;2023-07-20T11:22:24;23.80;64.00
32524;DHT22;18965;52.242;20.886;2023-07-20T11:24:49;23.90;63.20
32524;DHT22;18965;52.242;20.886;2023-07-20T11:27:16;23.80;62.40
32524;DHT22;18965;52.242;20.886;2023-07-20T11:29:45;23.80;61.90
32524;DHT22;18965;52.242;20.886;2023-07-20T11:32:11;23.70;62.20
32524;DHT22;18965;52.242;20.886;2023-07-20T11:34:37;23.70;62.10
32524;DHT22;18965;52.242;20.886;2023-07-20T11:37:03;23.60;62.20
32524;DHT22;18965;52.242;20.886;2023-07-20T11:39:32;23.50;62.00
32524;DHT22;18965;52.242;20.886;2023-07-20T11:41:58;23.40;61.90
32524;DHT22;18965;52.242;20.886;2023-07-20T11:44:26;23.40;62.40
32524;DHT22;18965;52.242;20.886;2023-07-20T11:47:06;23.30;62.60
32524;DHT22;18965;52.242;20.886;2023-07-20T11:49:39;23.30;62.30
32524;DHT22;18965;52.242;20.886;2023-07-20T11:52:10;23.40;62.10
32524;DHT22;18965;52.242;20.886;2023-07-20T11:54:42;23.50;62.60
32524;DHT22;18965;52.242;20.886;2023-07-20T11:57:16;23.60;62.90
32524;DHT22;18965;52.242;20.886;2023-07-20T11:59:54;23.70;62.80
32524;DHT22;18965;52.242;20.886;2023-07-20T12:02:23;23.80;62.50
32524;DHT22;18965;52.242;20.886;2023-07-20T12:04:52;23.80;62.50
32524;DHT22;18965;52.242;20.886;2023-07-20T12:07:28;23.90;61.70
32524;DHT22;18965;52.242;20.886;2023-07-20T12:10:12;24.00;61.00
32524;DHT22;18965;52.242;20.886;2023-07-20T12:12:39;24.10;60.70
32524;DHT22;18965;52.242;20.886;2023-07-20T12:17:48;24.50;60.00
32524;DHT22;18965;52.242;20.886;2023-07-20T12:23:10;25.00;59.30
32524;DHT22;18965;52.242;20.886;2023-07-20T12:25:40;25.10;59.30
32524;DHT22;18965;52.242;20.886;2023-07-20T12:28:09;25.30;58.30
32524;DHT22;18965;52.242;20.886;2023-07-20T12:30:36;25.40;58.10
32524;DHT22;18965;52.242;20.886;2023-07-20T12:33:08;25.40;58.10
32524;DHT22;18965;52.242;20.886;2023-07-20T12:35:37;25.40;57.80
32524;DHT22;18965;52.242;20.886;2023-07-20T12:38:03;25.40;57.90
32524;DHT22;18965;52.242;20.886;2023-07-20T12:40:32;25.30;57.60
32524;DHT22;18965;52.242;20.886;2023-07-20T12:42:58;25.30;57.90
32524;DHT22;18965;52.242;20.886;2023-07-20T12:45:24;25.20;57.90
32524;DHT22;18965;52.242;20.886;2023-07-20T12:47:50;25.10;57.80
32524;DHT22;18965;52.242;20.886;2023-07-20T12:50:15;25.10;57.80
32524;DHT22;18965;52.242;20.886;2023-07-20T12:52:41;24.90;57.80
32524;DHT22;18965;52.242;20.886;2023-07-20T12:55:09;24.90;57.50
32524;DHT22;18965;52.242;20.886;2023-07-20T12:57:45;24.80;57.20
32524;DHT22;18965;52.242;20.886;2023-07-20T13:00:14;24.80;57.10
32524;DHT22;18965;52.242;20.886;2023-07-20T13:02:40;24.70;57.60
32524;DHT22;18965;52.242;20.886;2023-07-20T13:05:07;24.60;58.10
32524;DHT22;18965;52.242;20.886;2023-07-20T13:07:37;24.70;58.70
32524;DHT22;18965;52.242;20.886;2023-07-20T13:10:06;24.70;59.30
32524;DHT22;18965;52.242;20.886;2023-07-20T13:12:33;24.80;59.60
32524;DHT22;18965;52.242;20.886;2023-07-20T13:15:03;24.70;58.80
32524;DHT22;18965;52.242;20.886;2023-07-20T13:17:31;24.80;58.80
32524;DHT22;18965;52.242;20.886;2023-07-20T13:19:57;24.80;58.60
32524;DHT22;18965;52.242;20.886;2023-07-20T13:22:32;24.90;59.10
32524;DHT22;18965;52.242;20.886;2023-07-20T13:24:58;25.00;58.60
32524;DHT22;18965;52.242;20.886;2023-07-20T13:27:27;25.10;58.40
32524;DHT22;18965;52.242;20.886;2023-07-20T13:29:52;25.10;58.30
32524;DHT22;18965;52.242;20.886;2023-07-20T13:32:19;25.10;58.10
32524;DHT22;18965;52.242;20.886;2023-07-20T13:34:45;25.10;57.90
32524;DHT22;18965;52.242;20.886;2023-07-20T13:37:11;25.10;58.00
32524;DHT22;18965;52.242;20.886;2023-07-20T13:39:40;25.10;57.70
32524;DHT22;18965;52.242;20.886;2023-07-20T13:42:09;25.00;57.50
32524;DHT22;18965;52.242;20.886;2023-07-20T13:44:42;24.80;57.60
32524;DHT22;18965;52.242;20.886;2023-07-20T13:47:10;24.80;58.00
32524;DHT22;18965;52.242;20.886;2023-07-20T13:49:37;24.70;58.20
32524;DHT22;18965;52.242;20.886;2023-07-20T13:52:03;24.60;58.30
32524;DHT22;18965;52.242;20.886;2023-07-20T13:54:32;24.60;58.60
32524;DHT22;18965;52.242;20.886;2023-07-20T13:57:02;24.60;58.90
32524;DHT22;18965;52.242;20.886;2023-07-20T13:59:37;24.60;58.80
32524;DHT22;18965;52.242;20.886;2023-07-20T14:02:03;24.60;58.50
32524;DHT22;18965;52.242;20.886;2023-07-20T14:04:29;24.60;58.40
32524;DHT22;18965;52.242;20.886;2023-07-20T14:06:55;24.60;58.30
32524;DHT22;18965;52.242;20.886;2023-07-20T14:09:20;24.50;58.10
32524;DHT22;18965;52.242;20.886;2023-07-20T14:11:46;24.40;58.10
32524;DHT22;18965;52.242;20.886;2023-07-20T14:14:12;24.30;58.20
32524;DHT22;18965;52.242;20.886;2023-07-20T14:16:41;24.30;58.30
32524;DHT22;18965;52.242;20.886;2023-07-20T14:19:07;24.20;58.20
32524;DHT22;18965;52.242;20.886;2023-07-20T14:21:33;24.20;58.20
32524;DHT22;18965;52.242;20.886;2023-07-20T14:23:58;24.10;58.00
32524;DHT22;18965;52.242;20.886;2023-07-20T14:26:27;24.10;57.80
32524;DHT22;18965;52.242;20.886;2023-07-20T14:28:53;24.00;57.50
32524;DHT22;18965;52.242;20.886;2023-07-20T14:31:18;24.00;57.40
32524;DHT22;18965;52.242;20.886;2023-07-20T14:33:45;24.00;57.70
32524;DHT22;18965;52.242;20.886;2023-07-20T14:36:11;23.90;57.50
32524;DHT22;18965;52.242;20.886;2023-07-20T14:38:37;23.80;57.50
32524;DHT22;18965;52.242;20.886;2023-07-20T14:41:14;23.80;58.00
32524;DHT22;18965;52.242;20.886;2023-07-20T14:43:50;23.80;58.40
32524;DHT22;18965;52.242;20.886;2023-07-20T14:46:18;23.80;58.40
32524;DHT22;18965;52.242;20.886;2023-07-20T14:48:44;23.80;58.60
32524;DHT22;18965;52.242;20.886;2023-07-20T14:51:10;23.90;58.90
32524;DHT22;18965;52.242;20.886;2023-07-20T14:53:36;23.90;58.80
32524;DHT22;18965;52.242;20.886;2023-07-20T14:56:02;24.00;58.90
32524;DHT22;18965;52.242;20.886;2023-07-20T14:58:28;24.00;58.80
32524;DHT22;18965;52.242;20.886;2023-07-20T15:00:53;24.00;58.50
32524;DHT22;18965;52.242;20.886;2023-07-20T15:03:19;24.10;58.50
32524;DHT22;18965;52.242;20.886;2023-07-20T15:05:45;24.20;58.20
32524;DHT22;18965;52.242;20.886;2023-07-20T15:08:20;24.30;58.20
32524;DHT22;18965;52.242;20.886;2023-07-20T15:10:47;24.30;57.60
32524;DHT22;18965;52.242;20.886;2023-07-20T15:13:18;24.30;57.10
32524;DHT22;18965;52.242;20.886;2023-07-20T15:15:44;24.30;56.80
32524;DHT22;18965;52.242;20.886;2023-07-20T15:18:09;24.30;56.80
32524;DHT22;18965;52.242;20.886;2023-07-20T15:20:35;24.20;56.80
32524;DHT22;18965;52.242;20.886;2023-07-20T15:23:04;24.30;57.00
32524;DHT22;18965;52.242;20.886;2023-07-20T15:25:30;24.30;57.70
32524;DHT22;18965;52.242;20.886;2023-07-20T15:27:55;24.30;56.90
32524;DHT22;18965;52.242;20.886;2023-07-20T15:30:21;24.30;56.80
32524;DHT22;18965;52.242;20.886;2023-07-20T15:32:47;24.30;56.70
32524;DHT22;18965;52.242;20.886;2023-07-20T15:35:13;24.30;56.60
32524;DHT22;18965;52.242;20.886;2023-07-20T15:37:38;24.30;56.70
32524;DHT22;18965;52.242;20.886;2023-07-20T15:40:05;24.30;56.60
32524;DHT22;18965;52.242;20.886;2023-07-20T15:42:35;24.20;56.80
32524;DHT22;18965;52.242;20.886;2023-07-20T15:45:00;24.20;56.60
32524;DHT22;18965;52.242;20.886;2023-07-20T15:47:26;24.20;56.60
32524;DHT22;18965;52.242;20.886;2023-07-20T15:49:52;24.20;56.70
32524;DHT22;18965;52.242;20.886;2023-07-20T15:52:21;24.10;56.80